Time;durP1;ratioP1;P1;durP2;ratioP2;P2;SDS_P1;SDS_P2;PMS_P1;PMS_P2;Temp;Humidity;BMP_temperature;BMP_pressure;BME280_temperature;BME280_humidity;BME280_pressure;Samples;Min_cycle;Max_cycle;Signal;HPM_P1;HPM_P2
2022/11/30 00:02:32;;;;;;;1999.90;999.90;;;7.60;99.90;;;;;;6735594;88;20234;-80
2022/11/30 00:12:33;;;;;;;1999.90;999.90;;;7.50;99.90;;;;;;6735982;88;20365;-79
2022/11/30 00:22:33;;;;;;;1999.90;999.90;;;7.40;99.90;;;;;;6733849;88;20686;-78
2022/11/30 00:32:34;;;;;;;1999.90;999.90;;;7.50;99.90;;;;;;6731722;88;20225;-79
2022/11/30 00:42:35;;;;;;;1999.90;999.90;;;7.40;99.90;;;;;;6733923;88;20600;-79
2022/11/30 00:52:35;;;;;;;1999.90;999.90;;;7.40;99.90;;;;;;6719120;88;20195;-80
2022/11/30 01:02:36;;;;;;;1999.90;999.90;;;7.40;99.90;;;;;;6721618;88;20201;-79
2022/11/30 01:12:36;;;;;;;1999.90;999.90;;;7.40;99.90;;;;;;6722311;88;20236;-80
2022/11/30 01:22:37;;;;;;;1999.90;999.90;;;7.40;99.90;;;;;;6722886;88;20750;-79
2022/11/30 01:33:18;;;;;;;1999.90;999.90;;;7.30;99.90;;;;;;6731116;77;20701;-76
2022/11/30 01:43:19;;;;;;;1999.90;999.90;;;7.20;99.90;;;;;;6715368;88;20185;-77
2022/11/30 01:53:19;;;;;;;1999.90;999.90;;;7.20;99.90;;;;;;6713270;88;20369;-77
2022/11/30 02:03:38;;;;;;;1999.90;999.90;;;7.20;99.90;;;;;;6713678;88;20207;-76
2022/11/30 02:14:14;;;;;;;1999.90;999.90;;;7.20;99.90;;;;;;6713753;88;20724;-76
2022/11/30 02:24:33;;;;;;;1999.90;999.90;;;7.20;99.90;;;;;;6697578;88;20189;-76
2022/11/30 02:34:36;;;;;;;1999.90;999.90;;;7.20;99.90;;;;;;6717156;88;22150;-76
2022/11/30 02:44:37;;;;;;;1999.90;999.90;;;7.10;99.90;;;;;;6715699;88;20256;-77
2022/11/30 02:54:37;;;;;;;1999.90;999.90;;;7.20;99.90;;;;;;6713677;88;20820;-78
2022/11/30 03:04:38;;;;;;;1999.90;999.90;;;7.10;99.90;;;;;;6719943;88;20216;-76
2022/11/30 03:14:38;;;;;;;1999.90;999.90;;;7.20;99.90;;;;;;6719894;88;20263;-77
2022/11/30 03:24:39;;;;;;;1999.90;999.90;;;7.20;99.90;;;;;;6715355;88;20225;-77
2022/11/30 03:34:39;;;;;;;1999.90;999.90;;;7.20;99.90;;;;;;6716257;88;20222;-76
2022/11/30 03:44:40;;;;;;;1999.90;999.90;;;7.20;99.90;;;;;;6720287;88;20296;-77
2022/11/30 03:54:40;;;;;;;1999.90;999.90;;;7.20;99.90;;;;;;6716625;88;20244;-76
2022/11/30 04:04:41;;;;;;;1999.90;999.90;;;7.10;99.90;;;;;;6718188;88;20189;-77
2022/11/30 04:14:41;;;;;;;1999.90;999.90;;;7.10;99.90;;;;;;6718976;88;20194;-76
2022/11/30 04:24:42;;;;;;;1999.90;999.90;;;7.10;99.90;;;;;;6712632;88;20203;-76
2022/11/30 04:34:42;;;;;;;1999.90;999.90;;;7.10;99.90;;;;;;6716710;88;20230;-77
2022/11/30 04:44:43;;;;;;;1999.90;999.90;;;7.10;99.90;;;;;;6714186;88;20182;-77
2022/11/30 04:54:43;;;;;;;1999.90;999.90;;;7.20;99.90;;;;;;6716723;88;20199;-76
2022/11/30 05:04:44;;;;;;;1999.90;999.90;;;7.10;99.90;;;;;;6719255;88;20242;-75
2022/11/30 05:14:44;;;;;;;1999.90;999.90;;;7.20;99.90;;;;;;6719461;88;20324;-77
2022/11/30 05:24:45;;;;;;;1999.90;999.90;;;7.10;99.90;;;;;;6718446;88;20197;-76
2022/11/30 05:34:45;;;;;;;1999.90;999.90;;;7.20;99.90;;;;;;6716102;88;20665;-76
2022/11/30 05:44:46;;;;;;;1999.90;999.90;;;7.20;99.90;;;;;;6715283;88;20589;-76
2022/11/30 05:54:47;;;;;;;1999.90;999.90;;;7.30;99.90;;;;;;6713136;88;20329;-77
2022/11/30 06:04:47;;;;;;;1999.90;999.90;;;7.30;99.90;;;;;;6713691;88;20242;-75
2022/11/30 06:14:49;;;;;;;1999.90;999.90;;;7.30;99.90;;;;;;6713715;88;20389;-76
2022/11/30 06:24:50;;;;;;;1999.90;999.90;;;7.30;99.90;;;;;;6713408;88;20284;-77
2022/11/30 06:34:50;;;;;;;1999.90;999.90;;;7.30;99.90;;;;;;6717134;88;20254;-77
2022/11/30 06:44:51;;;;;;;1999.90;999.90;;;7.40;99.90;;;;;;6713276;88;20267;-78
2022/11/30 06:54:51;;;;;;;1999.90;999.90;;;7.30;99.90;;;;;;6712230;88;20182;-77
2022/11/30 07:04:52;;;;;;;1999.90;999.90;;;7.30;99.90;;;;;;6714069;88;20194;-76
2022/11/30 07:14:55;;;;;;;1999.90;999.90;;;7.40;99.90;;;;;;6714733;88;20199;-77
2022/11/30 07:35:56;;;;;;;1999.90;999.90;;;7.40;99.90;;;;;;6740250;77;20268;-80
2022/11/30 07:45:56;;;;;;;1999.90;999.90;;;7.30;99.90;;;;;;6772006;88;20182;-80
2022/11/30 07:56:05;;;;;;;1999.90;999.90;;;7.30;99.90;;;;;;6764804;88;20187;-80
2022/11/30 08:06:11;;;;;;;1999.90;999.90;;;7.20;99.90;;;;;;6777205;87;20896;-80
2022/11/30 08:16:15;;;;;;;1999.90;999.90;;;7.30;99.90;;;;;;6784355;87;20228;-80
2022/11/30 08:26:17;;;;;;;1999.90;999.90;;;7.30;99.90;;;;;;6774624;87;20173;-80
2022/11/30 08:36:20;;;;;;;1999.90;999.90;;;7.30;99.90;;;;;;6784449;87;20899;-78
2022/11/30 08:46:22;;;;;;;1999.90;999.90;;;7.40;99.90;;;;;;6780587;87;21293;-78
2022/11/30 08:56:23;;;;;;;1999.90;999.90;;;7.30;99.90;;;;;;6784680;87;20853;-78
2022/11/30 09:06:26;;;;;;;1999.90;999.90;;;7.20;99.90;;;;;;6783708;87;20145;-78
2022/11/30 09:16:27;;;;;;;1999.90;999.90;;;7.30;99.90;;;;;;6785288;87;20175;-80
2022/11/30 09:26:28;;;;;;;1999.90;999.90;;;7.30;99.90;;;;;;6786127;87;20180;-79
2022/11/30 09:36:29;;;;;;;1999.90;999.90;;;7.30;99.90;;;;;;6786614;87;20260;-78
2022/11/30 09:46:40;;;;;;;1999.90;999.90;;;7.20;99.90;;;;;;6785165;87;21137;-79
2022/11/30 09:56:42;;;;;;;1999.90;999.90;;;7.10;99.90;;;;;;6764254;88;20160;-78
2022/11/30 10:07:08;;;;;;;1999.90;999.90;;;7.00;99.90;;;;;;6767926;88;20203;-78
2022/11/30 10:17:15;;;;;;;1999.90;999.90;;;7.00;99.90;;;;;;6784800;87;20227;-79
2022/11/30 10:27:41;;;;;;;1999.90;999.90;;;7.10;99.90;;;;;;6785150;87;20360;-79
2022/11/30 10:37:43;;;;;;;1999.90;999.90;;;7.20;99.90;;;;;;6767099;88;20249;-79
2022/11/30 10:47:51;;;;;;;1999.90;999.90;;;7.20;99.90;;;;;;6767090;88;20172;-78
2022/11/30 10:58:21;;;;;;;1999.90;999.90;;;7.20;99.90;;;;;;6767417;88;20547;-79
2022/11/30 11:08:24;;;;;;;1999.90;999.90;;;7.30;99.90;;;;;;6749384;88;20292;-78
2022/11/30 11:18:25;;;;;;;1999.90;999.90;;;7.20;99.90;;;;;;6766561;88;20344;-79
2022/11/30 11:28:27;;;;;;;1999.90;999.90;;;7.40;99.90;;;;;;6763193;88;20259;-79
2022/11/30 11:38:37;;;;;;;1999.90;999.90;;;7.30;99.90;;;;;;6765667;88;20239;-78
2022/11/30 11:48:42;;;;;;;1999.90;999.90;;;7.40;99.90;;;;;;6761189;88;20176;-78
2022/11/30 11:58:49;;;;;;;1999.90;999.90;;;7.30;99.90;;;;;;6777417;88;20199;-78
2022/11/30 12:08:58;;;;;;;1999.90;999.90;;;7.30;99.90;;;;;;6779959;88;20218;-78
2022/11/30 12:19:26;;;;;;;1999.90;999.90;;;7.30;99.90;;;;;;6776638;88;20238;-78
2022/11/30 12:29:56;;;;;;;1999.90;999.90;;;7.30;99.90;;;;;;6781643;87;20684;-78
2022/11/30 12:40:09;;;;;;;1999.90;999.90;;;7.30;99.90;;;;;;6770716;87;20646;-78
2022/11/30 12:50:40;;;;;;;1999.90;999.90;;;7.30;99.90;;;;;;6759097;88;20212;-78
2022/11/30 13:01:15;;;;;;;1999.90;999.90;;;7.30;99.90;;;;;;6774133;88;20872;-82
2022/11/30 13:11:32;;;;;;;1999.90;999.90;;;7.30;99.90;;;;;;6766582;88;20214;-79
2022/11/30 13:21:58;;;;;;;1999.90;999.90;;;7.40;99.90;;;;;;6763208;88;20783;-79
2022/11/30 13:32:11;;;;;;;1999.90;999.90;;;7.30;99.90;;;;;;6773990;77;20355;-76
2022/11/30 13:42:31;;;;;;;1999.90;999.90;;;7.40;99.90;;;;;;6711097;88;20252;-76
2022/11/30 13:52:57;;;;;;;1999.90;999.90;;;7.40;99.90;;;;;;6707912;88;20208;-76
2022/11/30 14:03:19;;;;;;;1999.90;999.90;;;7.30;99.90;;;;;;6706882;88;20199;-75
2022/11/30 14:13:21;;;;;;;1999.90;999.90;;;7.20;99.90;;;;;;6702336;88;20207;-76
2022/11/30 14:23:42;;;;;;;1999.90;999.90;;;7.20;99.90;;;;;;6706114;88;20312;-75
2022/11/30 14:33:50;;;;;;;1999.90;999.90;;;7.20;99.90;;;;;;6710015;88;20223;-74
2022/11/30 14:44:12;;;;;;;1999.90;999.90;;;7.30;99.90;;;;;;6704225;88;20198;-75
2022/11/30 14:54:26;;;;;;;1999.90;999.90;;;7.20;99.90;;;;;;6710150;88;20723;-75
2022/11/30 15:04:29;;;;;;;1999.90;999.90;;;7.20;99.90;;;;;;6706076;88;20191;-75
2022/11/30 15:14:30;;;;;;;1999.90;999.90;;;7.30;99.90;;;;;;6708736;88;20228;-76
2022/11/30 15:24:31;;;;;;;1999.90;999.90;;;7.30;99.90;;;;;;6706117;88;20308;-75
2022/11/30 15:34:51;;;;;;;1999.90;999.90;;;7.30;99.90;;;;;;6698506;88;20186;-76
2022/11/30 15:44:52;;;;;;;1999.90;999.90;;;7.30;99.90;;;;;;6698185;88;20982;-75
2022/11/30 15:54:55;;;;;;;1999.90;999.90;;;7.20;99.90;;;;;;6703864;88;20226;-76
2022/11/30 16:04:55;;;;;;;1999.90;999.90;;;7.20;99.90;;;;;;6696815;88;20229;-75
2022/11/30 16:14:56;;;;;;;1999.90;999.90;;;7.30;99.90;;;;;;6695847;88;20174;-76
2022/11/30 16:24:56;;;;;;;1999.90;999.90;;;7.30;99.90;;;;;;6693888;88;20337;-76
2022/11/30 16:34:57;;;;;;;1999.90;999.90;;;7.20;99.90;;;;;;6700103;88;20644;-76
2022/11/30 16:44:57;;;;;;;1999.90;999.90;;;7.20;99.90;;;;;;6698041;88;21028;-76
2022/11/30 16:54:58;;;;;;;1999.90;999.90;;;7.30;99.90;;;;;;6701468;88;20261;-75
2022/11/30 17:04:59;;;;;;;1999.90;999.90;;;7.20;99.90;;;;;;6696136;88;20287;-75
2022/11/30 17:15:00;;;;;;;1999.90;999.90;;;7.20;99.90;;;;;;6699533;88;20311;-76
2022/11/30 17:25:00;;;;;;;1999.90;999.90;;;7.20;99.90;;;;;;6704220;88;20693;-77
2022/11/30 17:35:01;;;;;;;1999.90;999.90;;;7.30;99.90;;;;;;6704733;88;20195;-77
2022/11/30 17:45:02;;;;;;;1999.90;999.90;;;7.20;99.90;;;;;;6710025;88;20297;-76
2022/11/30 17:55:02;;;;;;;1999.90;999.90;;;7.20;99.90;;;;;;6716348;88;21077;-76
2022/11/30 18:05:03;;;;;;;1999.90;999.90;;;7.20;99.90;;;;;;6704751;88;20226;-76
2022/11/30 18:15:05;;;;;;;1999.90;999.90;;;7.30;99.90;;;;;;6699915;88;20787;-75
2022/11/30 18:25:06;;;;;;;1999.90;999.90;;;7.20;99.90;;;;;;6694024;88;20187;-76
2022/11/30 18:35:07;;;;;;;1999.90;999.90;;;7.20;99.90;;;;;;6691843;88;20251;-76
2022/11/30 18:45:08;;;;;;;1999.90;999.90;;;7.20;99.90;;;;;;6695594;88;20309;-76
2022/11/30 18:55:09;;;;;;;1999.90;999.90;;;7.20;99.90;;;;;;6693921;88;20292;-77
2022/11/30 19:05:09;;;;;;;1999.90;999.90;;;7.20;99.90;;;;;;6705531;88;20668;-76
2022/11/30 19:15:11;;;;;;;1999.90;999.90;;;7.20;99.90;;;;;;6705010;88;20309;-77
2022/11/30 19:25:12;;;;;;;1999.90;999.90;;;7.20;99.90;;;;;;6696483;88;20283;-76
2022/11/30 19:45:34;;;;;;;1999.90;999.90;;;7.10;99.90;;;;;;6739896;76;20185;-78
2022/11/30 19:55:37;;;;;;;1999.90;999.90;;;7.10;99.90;;;;;;6718165;88;20205;-78
2022/11/30 20:05:38;;;;;;;1999.90;999.90;;;7.10;99.90;;;;;;6715243;88;20813;-79
2022/11/30 20:15:39;;;;;;;1999.90;999.90;;;7.10;99.90;;;;;;6723859;88;20260;-79
2022/11/30 20:25:40;;;;;;;1999.90;999.90;;;7.10;99.90;;;;;;6720156;88;20205;-78
2022/11/30 20:35:40;;;;;;;1999.90;999.90;;;7.00;99.90;;;;;;6725525;88;20194;-79
2022/11/30 20:45:41;;;;;;;1999.90;999.90;;;7.20;99.90;;;;;;6730400;88;20204;-80
2022/11/30 20:55:41;;;;;;;1999.90;999.90;;;7.20;99.90;;;;;;6717816;88;23332;-81
2022/11/30 21:05:42;;;;;;;1999.90;999.90;;;7.20;99.90;;;;;;6717444;88;20184;-79
2022/11/30 21:15:42;;;;;;;1999.90;999.90;;;7.20;99.90;;;;;;6716960;88;20155;-81
2022/11/30 21:25:44;;;;;;;1999.90;999.90;;;7.20;99.90;;;;;;6710721;88;20277;-78
2022/11/30 21:35:45;;;;;;;1999.90;999.90;;;7.20;99.90;;;;;;6711967;88;20179;-80
2022/11/30 21:46:03;;;;;;;1999.90;999.90;;;7.20;99.90;;;;;;6711834;88;20715;-80
2022/11/30 21:56:05;;;;;;;1999.90;999.90;;;7.10;99.90;;;;;;6688173;88;20298;-76
2022/11/30 22:06:07;;;;;;;1999.90;999.90;;;7.20;99.90;;;;;;6685278;88;20784;-75
2022/11/30 22:16:13;;;;;;;1999.90;999.90;;;7.20;99.90;;;;;;6692935;88;20198;-76
2022/11/30 22:26:24;;;;;;;1999.90;999.90;;;7.20;99.90;;;;;;6683849;88;20178;-77
2022/11/30 22:36:27;;;;;;;1999.90;999.90;;;7.10;99.90;;;;;;6683257;88;20562;-78
2022/11/30 22:46:30;;;;;;;1999.90;999.90;;;7.10;99.90;;;;;;6683330;88;20189;-77
2022/11/30 22:56:36;;;;;;;1999.90;999.90;;;7.10;99.90;;;;;;6704480;88;20209;-78
2022/11/30 23:06:38;;;;;;;1999.90;999.90;;;7.00;99.90;;;;;;6708086;88;20236;-77
2022/11/30 23:16:39;;;;;;;1999.90;999.90;;;7.00;99.90;;;;;;6708845;88;20204;-77
2022/11/30 23:26:40;;;;;;;1999.90;999.90;;;7.00;99.90;;;;;;6712548;88;20932;-77
2022/11/30 23:36:41;;;;;;;1999.90;999.90;;;6.90;99.90;;;;;;6706494;88;20323;-77
2022/11/30 23:46:42;;;;;;;1999.90;999.90;;;6.90;99.90;;;;;;6707233;88;20220;-77
2022/11/30 23:56:42;;;;;;;1999.90;999.90;;;6.90;99.90;;;;;;6711465;88;20178;-77
